createdAt,value
2023-02-18T00:00:19.181Z,5.33
2023-02-18T00:05:23.125Z,6.17
2023-02-18T00:10:26.047Z,4.17
2023-02-18T00:15:29.030Z,4.33
2023-02-18T00:20:33.665Z,4.03
2023-02-18T00:25:36.594Z,4.70
2023-02-18T00:30:44.194Z,3.27
2023-02-18T00:35:47.640Z,3.40
2023-02-18T00:40:50.656Z,3.63
2023-02-18T00:45:54.295Z,4.13
2023-02-18T00:50:57.295Z,2.70
2023-02-18T00:56:01.475Z,1.93
2023-02-18T01:01:07.695Z,2.23
2023-02-18T01:06:12.289Z,1.83
2023-02-18T01:11:15.415Z,3.60
2023-02-18T01:16:18.550Z,2.60
2023-02-18T01:21:21.492Z,2.23
2023-02-18T01:26:24.473Z,2.37
2023-02-18T01:31:27.855Z,3.03
2023-02-18T01:36:31.042Z,4.93
2023-02-18T01:41:33.882Z,1.93
2023-02-18T01:46:37.485Z,2.20
2023-02-18T01:51:47.273Z,1.30
2023-02-18T01:57:05.325Z,2.10
2023-02-18T02:02:16.934Z,1.63
2023-02-18T02:07:23.694Z,3.33
2023-02-18T02:12:45.313Z,3.03
2023-02-18T02:18:40.526Z,1.77
2023-02-18T02:24:20.673Z,1.50
2023-02-18T02:29:44.768Z,1.63
2023-02-18T02:35:07.206Z,1.10
2023-02-18T02:40:09.953Z,3.17
2023-02-18T02:46:07.444Z,1.60
2023-02-18T02:51:45.053Z,1.63
2023-02-18T02:56:48.676Z,3.63
2023-02-18T03:02:21.927Z,1.43
2023-02-18T03:08:01.612Z,1.80
2023-02-18T03:13:19.927Z,3.70
2023-02-18T03:19:02.185Z,2.10
2023-02-18T03:24:16.706Z,1.30
2023-02-18T03:29:21.555Z,1.00
2023-02-18T03:34:33.674Z,1.50
2023-02-18T03:39:39.393Z,0.73
2023-02-18T03:44:42.323Z,1.40
2023-02-18T03:49:45.887Z,1.33
2023-02-18T03:54:48.982Z,2.97
2023-02-18T03:59:51.735Z,1.67
2023-02-18T04:04:54.726Z,1.70
2023-02-18T04:09:57.693Z,1.10
2023-02-18T04:15:00.451Z,2.27
2023-02-18T04:20:04.734Z,1.10
2023-02-18T04:25:08.687Z,1.43
2023-02-18T04:30:12.641Z,3.83
2023-02-18T04:35:15.835Z,2.60
2023-02-18T04:40:18.897Z,1.33
2023-02-18T04:45:21.841Z,1.87
2023-02-18T04:50:24.822Z,1.93
2023-02-18T04:55:27.725Z,3.40
2023-02-18T05:00:30.559Z,1.03
2023-02-18T05:05:33.616Z,1.13
2023-02-18T05:10:39.201Z,1.20
2023-02-18T05:15:42.461Z,1.70
2023-02-18T05:20:45.441Z,1.30
2023-02-18T05:25:48.607Z,0.80
2023-02-18T05:30:51.535Z,1.13
2023-02-18T05:35:54.885Z,1.83
2023-02-18T05:40:57.950Z,1.73
2023-02-18T05:46:01.201Z,1.93
2023-02-18T05:51:05.162Z,1.67
2023-02-18T05:56:08.651Z,2.73
2023-02-18T06:01:11.754Z,5.80
2023-02-18T06:06:14.968Z,3.23
2023-02-18T06:11:18.081Z,3.43
2023-02-18T06:16:21.226Z,1.80
2023-02-18T06:21:24.646Z,1.97
2023-02-18T06:26:27.724Z,2.20
2023-02-18T06:31:30.833Z,1.53
2023-02-18T06:36:33.904Z,2.73
2023-02-18T06:41:36.898Z,1.87
2023-02-18T06:46:40.062Z,1.90
2023-02-18T06:51:43.067Z,1.70
2023-02-18T06:56:46.049Z,1.40
2023-02-18T07:01:49.007Z,1.43
2023-02-18T07:06:52.104Z,0.80
2023-02-18T07:11:55.070Z,1.40
2023-02-18T07:16:58.279Z,1.47
2023-02-18T07:22:01.632Z,2.70
2023-02-18T07:27:05.572Z,2.90
2023-02-18T07:32:08.538Z,2.53
2023-02-18T07:37:12.506Z,1.90
2023-02-18T07:42:15.672Z,2.57
2023-02-18T07:47:21.573Z,2.37
2023-02-18T07:52:24.990Z,1.70
2023-02-18T07:57:27.668Z,1.73
2023-02-18T08:02:30.480Z,2.50
2023-02-18T08:07:33.266Z,1.00
2023-02-18T08:12:36.229Z,1.03
2023-02-18T08:17:39.087Z,1.63
2023-02-18T08:22:42.076Z,2.60
2023-02-18T08:27:45.029Z,3.20
2023-02-18T08:32:48.041Z,1.60
2023-02-18T08:37:53.110Z,1.77
2023-02-18T08:42:57.462Z,2.80
2023-02-18T08:48:18.286Z,3.33
2023-02-18T08:53:23.224Z,3.90
2023-02-18T08:58:26.213Z,6.35
2023-02-18T09:03:29.416Z,3.00
2023-02-18T09:08:32.410Z,1.42
2023-02-18T09:13:35.392Z,3.00
2023-02-18T09:18:38.932Z,2.70
2023-02-18T09:23:42.982Z,1.50
2023-02-18T09:28:45.878Z,0.90
2023-02-18T09:33:56.588Z,1.52
2023-02-18T09:39:00.214Z,0.70
2023-02-18T09:44:11.735Z,0.70
2023-02-18T09:49:26.465Z,1.52
2023-02-18T09:54:30.050Z,2.53
2023-02-18T09:59:33.073Z,0.90
2023-02-18T10:04:44.980Z,1.80
2023-02-18T10:09:51.999Z,0.93
2023-02-18T10:15:01.368Z,0.95
2023-02-18T10:20:07.933Z,1.95
2023-02-18T10:25:20.696Z,0.70
2023-02-18T10:30:55.635Z,2.50
2023-02-18T10:36:30.255Z,1.23
2023-02-18T10:42:18.225Z,3.77
2023-02-18T10:47:30.948Z,1.20
2023-02-18T10:52:47.573Z,1.10
2023-02-18T10:57:55.662Z,4.03
2023-02-18T11:03:38.949Z,1.47
2023-02-18T11:08:45.415Z,1.80
2023-02-18T11:13:59.020Z,1.33
2023-02-18T11:19:04.506Z,1.23
2023-02-18T11:24:15.366Z,2.00
2023-02-18T11:34:33.236Z,1.50
2023-02-18T11:39:36.610Z,1.03
2023-02-18T11:44:53.487Z,1.73
2023-02-18T11:50:10.833Z,4.40
2023-02-18T11:55:22.602Z,4.37
2023-02-18T12:00:40.667Z,5.35
2023-02-18T12:05:45.836Z,2.20
2023-02-18T12:10:56.056Z,2.60
2023-02-18T12:16:26.886Z,2.53
2023-02-18T12:21:53.424Z,2.90
2023-02-18T12:27:22.703Z,3.65
2023-02-18T12:32:56.715Z,4.43
2023-02-18T12:38:11.193Z,5.70
2023-02-18T12:43:48.837Z,6.05
2023-02-18T12:49:21.580Z,5.57
2023-02-18T12:55:08.335Z,4.03
2023-02-18T13:00:36.126Z,4.03
2023-02-18T13:05:54.609Z,17.33
2023-02-18T13:11:12.823Z,3.40
2023-02-18T13:16:19.908Z,0.93
2023-02-18T13:21:24.051Z,3.78
2023-02-18T13:26:31.389Z,1.90
2023-02-18T13:32:10.633Z,2.67
2023-02-18T13:37:37.375Z,1.70
2023-02-18T13:42:40.377Z,4.18
2023-02-18T13:47:49.849Z,1.60
2023-02-18T13:53:08.081Z,0.57
2023-02-18T13:58:23.811Z,0.82
2023-02-18T14:03:36.213Z,0.75
2023-02-18T14:08:40.497Z,1.33
2023-02-18T14:14:25.857Z,0.93
2023-02-18T14:19:30.189Z,2.83
2023-02-18T14:24:49.950Z,0.55
2023-02-18T14:29:53.078Z,2.03
2023-02-18T14:35:20.986Z,2.33
2023-02-18T14:40:42.902Z,16.25
2023-02-18T14:46:33.278Z,5.65
2023-02-18T14:51:36.551Z,4.68
2023-02-18T14:56:58.621Z,3.75
2023-02-18T15:02:01.813Z,4.65
2023-02-18T15:07:10.019Z,5.78
2023-02-18T15:12:19.730Z,3.65
2023-02-18T15:17:29.527Z,1.43
2023-02-18T15:22:35.513Z,1.97
2023-02-18T15:27:44.469Z,2.90
2023-02-18T15:32:54.296Z,2.08
2023-02-18T15:38:00.323Z,2.75
2023-02-18T15:43:06.559Z,3.78
2023-02-18T15:48:45.377Z,6.80
2023-02-18T15:53:52.575Z,3.77
2023-02-18T15:59:35.548Z,3.73
2023-02-18T16:04:41.271Z,4.73
2023-02-18T16:09:44.243Z,4.37
2023-02-18T16:14:50.445Z,3.33
2023-02-18T16:20:18.348Z,11.00
2023-02-18T16:25:41.344Z,10.90
2023-02-18T16:30:46.244Z,14.87
2023-02-18T16:35:50.726Z,32.23
2023-02-18T16:40:55.326Z,36.27
2023-02-18T16:46:06.298Z,32.57
2023-02-18T16:51:24.004Z,34.87
2023-02-18T16:56:33.220Z,34.20
2023-02-18T17:01:44.859Z,42.90
2023-02-18T17:06:48.735Z,36.90
2023-02-18T17:11:55.457Z,38.43
2023-02-18T17:16:58.941Z,43.63
2023-02-18T17:22:01.839Z,38.63
2023-02-18T17:27:04.582Z,44.43
2023-02-18T17:32:08.595Z,45.07
2023-02-18T17:37:14.733Z,46.37
2023-02-18T17:42:17.769Z,49.50
2023-02-18T17:47:20.770Z,53.60
2023-02-18T17:52:31.212Z,62.77
2023-02-18T17:57:34.130Z,54.73
2023-02-18T18:02:37.568Z,49.90
2023-02-18T18:07:40.573Z,42.57
2023-02-18T18:12:44.917Z,32.63
2023-02-18T18:17:48.204Z,33.63
2023-02-18T18:22:54.891Z,28.20
2023-02-18T18:27:58.423Z,28.80
2023-02-18T18:33:02.524Z,27.77
2023-02-18T18:38:06.366Z,25.90
2023-02-18T18:43:21.236Z,30.63
2023-02-18T18:48:24.843Z,28.47
2023-02-18T18:53:32.125Z,30.40
2023-02-18T18:58:35.235Z,27.43
2023-02-18T19:03:38.601Z,25.67
2023-02-18T19:08:41.857Z,25.43
2023-02-18T19:13:45.987Z,26.40
2023-02-18T19:18:49.152Z,28.60
2023-02-18T19:23:52.099Z,29.00
2023-02-18T19:28:54.934Z,32.80
2023-02-18T19:33:57.807Z,27.87
2023-02-18T19:39:00.780Z,27.23
2023-02-18T19:44:04.523Z,28.60
2023-02-18T19:49:07.555Z,29.13
2023-02-18T19:54:10.537Z,27.83
2023-02-18T19:59:13.523Z,28.83
2023-02-18T20:04:17.012Z,26.20
2023-02-18T20:09:20.179Z,24.70
2023-02-18T20:14:23.990Z,28.80
2023-02-18T20:19:30.915Z,21.57
2023-02-18T20:24:35.084Z,23.43
2023-02-18T20:29:38.334Z,22.63
2023-02-18T20:34:43.732Z,21.67
2023-02-18T20:39:46.723Z,22.27
2023-02-18T20:44:51.555Z,23.83
2023-02-18T20:49:54.599Z,20.63
2023-02-18T20:54:57.640Z,19.20
2023-02-18T21:00:00.727Z,16.50
2023-02-18T21:05:04.108Z,11.73
2023-02-18T21:10:07.910Z,8.43
2023-02-18T21:15:10.977Z,7.63
2023-02-18T21:20:14.046Z,6.37
2023-02-18T21:25:17.007Z,7.87
2023-02-18T21:30:20.458Z,5.33
2023-02-18T21:35:25.188Z,6.13
2023-02-18T21:40:28.550Z,5.43
2023-02-18T21:45:31.677Z,5.03
2023-02-18T21:50:34.596Z,5.60
2023-02-18T21:55:37.587Z,5.27
2023-02-18T22:00:40.507Z,5.67
2023-02-18T22:05:44.364Z,6.87
2023-02-18T22:10:47.320Z,6.30
2023-02-18T22:15:57.779Z,7.67
2023-02-18T22:21:04.356Z,6.40
2023-02-18T22:26:09.624Z,7.50
2023-02-18T22:31:14.239Z,11.23
2023-02-18T22:36:19.502Z,6.90
2023-02-18T22:41:24.801Z,8.17
2023-02-18T22:46:30.378Z,6.37
2023-02-18T22:51:37.883Z,6.40
2023-02-18T22:56:41.768Z,8.37
2023-02-18T23:01:53.001Z,7.23
2023-02-18T23:12:00.362Z,6.67
2023-02-18T23:17:14.345Z,6.03
2023-02-18T23:22:24.817Z,11.30
2023-02-18T23:27:29.026Z,9.20
2023-02-18T23:32:32.088Z,10.53
2023-02-18T23:37:53.603Z,7.57
2023-02-18T23:47:59.753Z,2.67
2023-02-18T23:53:02.561Z,3.30
2023-02-18T23:58:05.856Z,3.17
